Time;durP1;ratioP1;P1;durP2;ratioP2;P2;SDS_P1;SDS_P2;PMS_P1;PMS_P2;Temp;Humidity;BMP_temperature;BMP_pressure;BME280_temperature;BME280_humidity;BME280_pressure;Samples;Min_cycle;Max_cycle;Signal;HPM_P1;HPM_P2
2022/12/18 00:01:41;;;;;;;8.40;6.45;;;;;;;;;;5092512;28;20142;-45
2022/12/18 00:04:08;;;;;;;9.07;6.78;;;;;;;;;;5091574;28;20028;-45
2022/12/18 00:06:36;;;;;;;9.48;6.47;;;;;;;;;;5091255;28;20032;-45
2022/12/18 00:09:03;;;;;;;9.43;7.70;;;;;;;;;;5090953;28;20054;-45
2022/12/18 00:11:30;;;;;;;9.15;6.30;;;;;;;;;;5091235;28;20497;-48
2022/12/18 00:13:57;;;;;;;9.85;6.53;;;;;;;;;;5092051;28;20385;-45
2022/12/18 00:16:25;;;;;;;9.50;7.00;;;;;;;;;;5089258;28;20350;-45
2022/12/18 00:18:53;;;;;;;8.88;6.43;;;;;;;;;;5091117;28;20089;-45
2022/12/18 00:21:19;;;;;;;10.32;6.93;;;;;;;;;;5091622;28;20107;-46
2022/12/18 00:23:46;;;;;;;9.05;7.07;;;;;;;;;;5093040;28;20868;-45
2022/12/18 00:26:14;;;;;;;9.57;6.80;;;;;;;;;;5092295;28;20067;-45
2022/12/18 00:28:41;;;;;;;9.68;7.50;;;;;;;;;;5091082;28;20102;-45
2022/12/18 00:31:14;;;;;;;9.70;6.68;;;;;;;;;;5091383;28;20028;-45
2022/12/18 00:33:40;;;;;;;9.70;6.45;;;;;;;;;;5091231;28;20102;-45
2022/12/18 00:36:27;;;;;;;9.48;6.82;;;;;;;;;;5091689;28;20095;-45
2022/12/18 00:38:54;;;;;;;11.68;7.53;;;;;;;;;;5098233;28;20039;-45
2022/12/18 00:44:05;;;;;;;8.88;6.53;;;;;;;;;;5092148;28;20521;-45
2022/12/18 00:46:32;;;;;;;9.82;7.18;;;;;;;;;;5077602;28;20032;-45
2022/12/18 00:48:58;;;;;;;9.18;7.20;;;;;;;;;;5088332;28;20078;-45
2022/12/18 00:51:24;;;;;;;10.68;7.45;;;;;;;;;;5088830;28;20035;-45
2022/12/18 00:53:50;;;;;;;10.73;7.40;;;;;;;;;;5087461;28;20024;-45
2022/12/18 00:56:16;;;;;;;9.00;6.40;;;;;;;;;;5099267;28;20051;-45
2022/12/18 00:58:42;;;;;;;9.27;6.75;;;;;;;;;;5097386;28;20417;-45
2022/12/18 01:01:08;;;;;;;9.25;6.38;;;;;;;;;;5091542;28;20032;-45
2022/12/18 01:03:34;;;;;;;10.32;7.30;;;;;;;;;;5090106;28;20107;-45
2022/12/18 01:06:05;;;;;;;9.55;7.07;;;;;;;;;;5090886;28;20028;-45
2022/12/18 01:08:31;;;;;;;9.18;6.85;;;;;;;;;;5089981;28;20024;-45
2022/12/18 01:10:57;;;;;;;9.48;7.40;;;;;;;;;;5093466;28;20035;-46
2022/12/18 01:13:23;;;;;;;8.73;6.43;;;;;;;;;;5091185;28;20020;-45
2022/12/18 01:15:50;;;;;;;8.45;6.30;;;;;;;;;;5090686;28;20103;-45
2022/12/18 01:18:16;;;;;;;9.57;6.75;;;;;;;;;;5086709;28;20028;-45
2022/12/18 01:20:42;;;;;;;9.23;6.50;;;;;;;;;;5090687;28;20363;-45
2022/12/18 01:23:08;;;;;;;10.73;6.88;;;;;;;;;;5091313;28;20111;-45
2022/12/18 01:25:36;;;;;;;9.75;7.20;;;;;;;;;;5069835;28;20112;-45
2022/12/18 01:28:02;;;;;;;9.23;6.32;;;;;;;;;;5087740;28;20024;-45
2022/12/18 01:30:28;;;;;;;8.88;6.75;;;;;;;;;;5090461;28;20120;-48
2022/12/18 01:32:54;;;;;;;11.43;6.85;;;;;;;;;;5091449;28;20042;-45
2022/12/18 01:35:20;;;;;;;9.68;6.90;;;;;;;;;;5091534;28;20066;-45
2022/12/18 01:37:46;;;;;;;8.30;5.80;;;;;;;;;;5090564;28;20028;-45
2022/12/18 01:40:12;;;;;;;8.95;6.45;;;;;;;;;;5091271;28;20058;-45
2022/12/18 01:42:38;;;;;;;10.20;7.25;;;;;;;;;;5070139;28;20429;-45
2022/12/18 01:45:23;;;;;;;8.85;6.50;;;;;;;;;;5090358;28;20111;-45
2022/12/18 01:47:53;;;;;;;8.13;6.20;;;;;;;;;;5094206;28;20016;-45
2022/12/18 01:50:22;;;;;;;8.45;6.57;;;;;;;;;;5095427;28;20073;-46
2022/12/18 01:53:01;;;;;;;8.95;6.00;;;;;;;;;;5092940;28;20023;-45
2022/12/18 01:55:30;;;;;;;11.70;6.95;;;;;;;;;;5097660;28;20040;-48
2022/12/18 01:57:58;;;;;;;8.05;5.85;;;;;;;;;;5101074;28;20535;-44
2022/12/18 02:00:24;;;;;;;8.73;6.20;;;;;;;;;;5099233;28;20103;-45
2022/12/18 02:02:51;;;;;;;8.07;5.97;;;;;;;;;;5096682;28;20032;-45
2022/12/18 02:05:25;;;;;;;9.30;6.25;;;;;;;;;;5098049;28;20032;-45
2022/12/18 02:07:54;;;;;;;8.00;5.72;;;;;;;;;;5090530;28;20071;-45
2022/12/18 02:10:27;;;;;;;9.02;6.65;;;;;;;;;;5089605;28;20032;-45
2022/12/18 02:12:57;;;;;;;8.20;6.25;;;;;;;;;;5088197;28;20126;-45
2022/12/18 02:15:31;;;;;;;8.93;6.50;;;;;;;;;;5095305;28;20443;-45
2022/12/18 02:17:59;;;;;;;8.85;6.38;;;;;;;;;;5087808;28;20446;-45
2022/12/18 02:20:31;;;;;;;7.63;6.00;;;;;;;;;;5090086;28;20012;-45
2022/12/18 02:23:15;;;;;;;7.93;5.65;;;;;;;;;;5094673;28;20039;-45
2022/12/18 02:26:02;;;;;;;8.63;6.43;;;;;;;;;;5093811;28;20036;-45
2022/12/18 02:28:31;;;;;;;7.93;5.63;;;;;;;;;;5097799;28;20024;-48
2022/12/18 02:30:59;;;;;;;8.88;6.53;;;;;;;;;;5093643;28;20024;-47
2022/12/18 02:33:25;;;;;;;8.98;6.32;;;;;;;;;;5088752;28;20416;-48
2022/12/18 02:35:52;;;;;;;10.80;7.13;;;;;;;;;;5104237;28;20097;-45
2022/12/18 02:38:18;;;;;;;9.43;6.70;;;;;;;;;;5108820;28;20035;-45
2022/12/18 02:40:45;;;;;;;7.97;5.53;;;;;;;;;;5092746;28;20473;-45
2022/12/18 02:43:12;;;;;;;9.02;6.07;;;;;;;;;;5093252;28;20024;-46
2022/12/18 02:45:52;;;;;;;9.50;6.22;;;;;;;;;;5093123;28;20036;-45
2022/12/18 02:48:20;;;;;;;9.07;6.55;;;;;;;;;;5093752;28;20101;-45
2022/12/18 02:50:51;;;;;;;7.88;5.63;;;;;;;;;;5096175;28;20016;-45
2022/12/18 02:53:20;;;;;;;8.52;6.30;;;;;;;;;;5093857;28;20043;-46
2022/12/18 02:55:55;;;;;;;8.80;6.03;;;;;;;;;;5095662;28;20078;-45
2022/12/18 02:58:23;;;;;;;8.00;5.80;;;;;;;;;;5094028;28;20095;-45
2022/12/18 03:00:59;;;;;;;9.70;6.47;;;;;;;;;;5086793;28;20046;-45
2022/12/18 03:03:42;;;;;;;9.45;7.15;;;;;;;;;;5093566;28;20499;-45
2022/12/18 03:06:11;;;;;;;11.70;6.97;;;;;;;;;;5093192;28;20032;-45
2022/12/18 03:08:39;;;;;;;8.80;6.10;;;;;;;;;;5091931;28;20385;-45
2022/12/18 03:11:12;;;;;;;8.80;6.10;;;;;;;;;;5093298;28;20477;-45
2022/12/18 03:13:51;;;;;;;9.05;6.10;;;;;;;;;;5092661;28;20039;-45
2022/12/18 03:16:27;;;;;;;9.05;6.68;;;;;;;;;;5078378;28;20504;-45
2022/12/18 03:18:59;;;;;;;10.07;6.88;;;;;;;;;;5088284;28;20050;-45
2022/12/18 03:21:30;;;;;;;7.03;5.55;;;;;;;;;;5093742;28;20028;-48
2022/12/18 03:23:56;;;;;;;8.70;6.43;;;;;;;;;;5093888;28;20342;-45
2022/12/18 03:26:24;;;;;;;7.35;6.10;;;;;;;;;;5096721;28;20066;-45
2022/12/18 03:28:53;;;;;;;9.30;6.72;;;;;;;;;;5093490;28;20028;-45
2022/12/18 03:31:20;;;;;;;10.30;7.35;;;;;;;;;;5091781;28;20107;-45
2022/12/18 03:33:47;;;;;;;7.53;5.55;;;;;;;;;;5092223;28;20095;-45
2022/12/18 03:36:14;;;;;;;7.88;5.82;;;;;;;;;;5093541;28;20028;-46
2022/12/18 03:38:40;;;;;;;9.52;6.40;;;;;;;;;;5091954;28;20028;-43
2022/12/18 03:41:09;;;;;;;8.63;6.18;;;;;;;;;;5098696;28;20102;-42
2022/12/18 03:43:35;;;;;;;8.50;5.85;;;;;;;;;;5091984;28;20031;-43
2022/12/18 03:46:21;;;;;;;8.93;6.32;;;;;;;;;;5093116;28;20377;-42
2022/12/18 03:48:51;;;;;;;7.70;5.50;;;;;;;;;;5073906;28;20603;-43
2022/12/18 03:51:37;;;;;;;8.90;6.70;;;;;;;;;;5093255;28;20471;-43
2022/12/18 03:54:05;;;;;;;9.30;6.47;;;;;;;;;;5091879;28;20036;-43
2022/12/18 03:56:32;;;;;;;8.70;6.68;;;;;;;;;;5089039;28;20407;-46
2022/12/18 03:58:59;;;;;;;8.88;5.85;;;;;;;;;;5084517;28;20497;-43
2022/12/18 04:01:28;;;;;;;7.97;5.63;;;;;;;;;;5079782;28;20027;-46
2022/12/18 04:03:56;;;;;;;8.25;6.05;;;;;;;;;;5090394;28;20032;-43
2022/12/18 04:06:23;;;;;;;8.45;5.93;;;;;;;;;;5092734;28;20040;-43
2022/12/18 04:08:49;;;;;;;8.80;5.63;;;;;;;;;;5091205;28;20135;-42
2022/12/18 04:11:15;;;;;;;6.68;5.70;;;;;;;;;;5089894;28;20020;-43
2022/12/18 04:13:43;;;;;;;8.20;5.97;;;;;;;;;;5091170;28;20026;-42
2022/12/18 04:16:09;;;;;;;8.13;5.82;;;;;;;;;;5090333;28;20036;-43
2022/12/18 04:18:35;;;;;;;7.68;5.75;;;;;;;;;;5094309;28;20423;-43
2022/12/18 04:21:01;;;;;;;8.18;5.78;;;;;;;;;;5095266;28;20020;-43
2022/12/18 04:23:28;;;;;;;7.75;5.55;;;;;;;;;;5090018;28;20071;-45
2022/12/18 04:25:54;;;;;;;7.38;5.93;;;;;;;;;;5091808;28;20481;-43
2022/12/18 04:28:20;;;;;;;7.70;5.35;;;;;;;;;;5091022;28;20074;-43
2022/12/18 04:30:46;;;;;;;6.93;5.00;;;;;;;;;;5091241;28;20585;-43
2022/12/18 04:33:12;;;;;;;7.22;5.38;;;;;;;;;;5090821;28;20107;-43
2022/12/18 04:35:39;;;;;;;8.57;5.63;;;;;;;;;;5092867;28;20020;-43
2022/12/18 04:38:08;;;;;;;8.60;6.35;;;;;;;;;;5092022;28;20377;-43
2022/12/18 04:40:34;;;;;;;6.45;5.03;;;;;;;;;;5091111;28;20024;-43
2022/12/18 04:42:59;;;;;;;8.13;5.35;;;;;;;;;;5091630;28;20098;-43
2022/12/18 04:45:25;;;;;;;7.88;5.68;;;;;;;;;;5091879;28;20107;-46
2022/12/18 04:47:51;;;;;;;8.10;5.97;;;;;;;;;;5089933;28;20028;-43
2022/12/18 04:50:17;;;;;;;7.57;5.95;;;;;;;;;;5091120;28;20516;-44
2022/12/18 04:52:43;;;;;;;7.47;5.68;;;;;;;;;;5090777;28;20016;-43
2022/12/18 04:55:09;;;;;;;8.45;5.72;;;;;;;;;;5093128;28;20044;-43
2022/12/18 04:57:35;;;;;;;7.60;6.07;;;;;;;;;;5102222;28;20081;-43
2022/12/18 05:00:01;;;;;;;8.00;5.25;;;;;;;;;;5091304;28;20024;-43
2022/12/18 05:02:27;;;;;;;6.97;5.57;;;;;;;;;;5091144;28;20316;-45
2022/12/18 05:04:53;;;;;;;7.25;5.47;;;;;;;;;;5091115;28;20067;-43
2022/12/18 05:07:19;;;;;;;7.10;5.50;;;;;;;;;;5100864;28;20051;-43
2022/12/18 05:09:45;;;;;;;8.63;5.90;;;;;;;;;;5095703;28;20019;-43
2022/12/18 05:12:11;;;;;;;6.60;4.97;;;;;;;;;;5094492;28;20099;-43
2022/12/18 05:14:37;;;;;;;6.72;5.50;;;;;;;;;;5091095;28;20066;-43
2022/12/18 05:17:03;;;;;;;8.23;5.97;;;;;;;;;;5083152;28;20044;-43
2022/12/18 05:19:29;;;;;;;7.20;5.22;;;;;;;;;;5091460;28;20020;-46
2022/12/18 05:21:55;;;;;;;7.88;5.32;;;;;;;;;;5086361;28;20434;-43
2022/12/18 05:24:21;;;;;;;6.90;5.10;;;;;;;;;;5095937;28;20103;-43
2022/12/18 05:26:47;;;;;;;7.82;5.13;;;;;;;;;;5094946;28;20081;-43
2022/12/18 05:29:13;;;;;;;7.53;5.40;;;;;;;;;;5095823;28;20481;-43
2022/12/18 05:31:39;;;;;;;6.95;5.10;;;;;;;;;;5094614;28;20086;-43
2022/12/18 05:34:05;;;;;;;6.97;4.95;;;;;;;;;;5096252;28;20063;-43
2022/12/18 05:36:31;;;;;;;7.30;5.75;;;;;;;;;;5093358;28;20561;-45
2022/12/18 05:38:57;;;;;;;7.55;5.47;;;;;;;;;;5095504;28;20051;-43
2022/12/18 05:41:23;;;;;;;6.10;4.90;;;;;;;;;;5105506;28;20051;-43
2022/12/18 05:43:49;;;;;;;9.07;5.78;;;;;;;;;;5094135;28;20632;-43
2022/12/18 05:46:17;;;;;;;7.55;5.35;;;;;;;;;;5094932;28;20074;-42
2022/12/18 05:48:44;;;;;;;8.35;5.47;;;;;;;;;;5093471;28;20091;-42
2022/12/18 05:51:11;;;;;;;7.40;5.00;;;;;;;;;;5095153;28;20081;-46
2022/12/18 05:53:37;;;;;;;8.65;4.78;;;;;;;;;;5104716;28;20433;-43
2022/12/18 05:56:04;;;;;;;7.53;5.10;;;;;;;;;;5096072;28;20075;-42
2022/12/18 05:58:30;;;;;;;8.27;5.72;;;;;;;;;;5105324;28;20421;-46
2022/12/18 06:00:56;;;;;;;7.22;4.63;;;;;;;;;;5099225;28;20381;-43
2022/12/18 06:03:22;;;;;;;7.00;5.20;;;;;;;;;;5091022;28;20071;-43
2022/12/18 06:05:48;;;;;;;6.75;5.03;;;;;;;;;;5094085;28;20499;-43
2022/12/18 06:08:14;;;;;;;6.38;5.07;;;;;;;;;;5094696;28;20041;-42
2022/12/18 06:10:41;;;;;;;6.70;4.90;;;;;;;;;;5093424;28;20102;-43
2022/12/18 06:13:07;;;;;;;7.35;4.90;;;;;;;;;;5095510;28;20028;-43
2022/12/18 06:15:33;;;;;;;6.25;4.75;;;;;;;;;;5088633;28;20039;-43
2022/12/18 06:18:01;;;;;;;5.97;4.70;;;;;;;;;;5085457;28;20024;-43
2022/12/18 06:20:27;;;;;;;6.25;4.85;;;;;;;;;;5094566;28;20102;-46
2022/12/18 06:22:53;;;;;;;8.02;4.82;;;;;;;;;;5091803;28;20103;-43
2022/12/18 06:25:19;;;;;;;8.35;5.30;;;;;;;;;;5094391;28;20032;-43
2022/12/18 06:27:45;;;;;;;8.00;5.15;;;;;;;;;;5093329;28;20105;-43
2022/12/18 06:30:12;;;;;;;6.53;5.05;;;;;;;;;;5088336;28;20024;-43
2022/12/18 06:32:38;;;;;;;7.30;5.20;;;;;;;;;;5076534;28;20520;-47
2022/12/18 06:35:04;;;;;;;7.10;5.57;;;;;;;;;;5096224;28;20028;-45
2022/12/18 06:37:31;;;;;;;6.78;4.63;;;;;;;;;;5087470;28;20036;-48
2022/12/18 06:39:57;;;;;;;6.55;4.70;;;;;;;;;;5093044;28;20119;-44
2022/12/18 06:42:23;;;;;;;6.53;4.57;;;;;;;;;;5084118;28;20049;-43
2022/12/18 06:44:49;;;;;;;6.05;4.60;;;;;;;;;;5088104;28;20056;-44
2022/12/18 06:47:15;;;;;;;7.50;5.35;;;;;;;;;;5095641;28;20437;-43
2022/12/18 06:49:41;;;;;;;7.13;5.45;;;;;;;;;;5087448;28;20032;-45
2022/12/18 06:52:07;;;;;;;8.15;4.70;;;;;;;;;;5095801;28;20024;-43
2022/12/18 06:54:33;;;;;;;6.35;4.90;;;;;;;;;;5093557;28;20553;-47
2022/12/18 06:56:59;;;;;;;5.90;4.30;;;;;;;;;;5086128;28;20405;-44
2022/12/18 06:59:25;;;;;;;6.25;4.65;;;;;;;;;;5094306;28;20028;-44
2022/12/18 07:01:51;;;;;;;7.57;5.03;;;;;;;;;;5081216;28;20361;-44
2022/12/18 07:04:17;;;;;;;5.72;4.78;;;;;;;;;;5112957;28;20050;-43
2022/12/18 07:06:43;;;;;;;6.25;4.70;;;;;;;;;;5085735;28;20036;-43
2022/12/18 07:09:09;;;;;;;6.05;5.20;;;;;;;;;;5105674;28;20027;-42
2022/12/18 07:11:35;;;;;;;6.13;4.10;;;;;;;;;;5085404;27;20036;-45
2022/12/18 07:14:01;;;;;;;6.72;4.70;;;;;;;;;;5110240;28;20019;-44
2022/12/18 07:16:30;;;;;;;6.68;4.70;;;;;;;;;;5079164;28;20036;-47
2022/12/18 07:18:56;;;;;;;5.90;4.43;;;;;;;;;;5092036;28;20032;-45
2022/12/18 07:21:23;;;;;;;5.18;3.67;;;;;;;;;;5089185;28;20036;-44
2022/12/18 07:23:49;;;;;;;6.03;4.72;;;;;;;;;;5090594;28;20050;-44
2022/12/18 07:26:16;;;;;;;7.20;5.43;;;;;;;;;;5090990;28;20044;-44
2022/12/18 07:28:42;;;;;;;5.80;4.38;;;;;;;;;;5096605;28;20022;-44
2022/12/18 07:31:09;;;;;;;5.05;4.28;;;;;;;;;;5088624;28;20031;-43
2022/12/18 07:33:35;;;;;;;4.88;3.70;;;;;;;;;;5096768;28;20031;-44
2022/12/18 07:36:03;;;;;;;4.20;3.80;;;;;;;;;;5089720;28;20040;-44
2022/12/18 07:38:29;;;;;;;6.55;4.63;;;;;;;;;;5100002;28;20020;-47
2022/12/18 07:40:55;;;;;;;7.10;4.57;;;;;;;;;;5090627;28;20044;-43
2022/12/18 07:43:21;;;;;;;8.30;4.75;;;;;;;;;;5091044;28;20105;-43
2022/12/18 07:45:50;;;;;;;6.05;4.40;;;;;;;;;;5083729;28;20123;-43
2022/12/18 07:48:16;;;;;;;6.13;4.55;;;;;;;;;;5109917;28;20436;-42
2022/12/18 07:50:42;;;;;;;6.30;4.32;;;;;;;;;;5096750;28;20048;-43
2022/12/18 07:53:08;;;;;;;9.00;5.35;;;;;;;;;;5105078;28;20354;-43
2022/12/18 07:55:34;;;;;;;6.97;5.13;;;;;;;;;;5100739;28;20079;-43
2022/12/18 07:58:03;;;;;;;6.15;4.70;;;;;;;;;;5097250;28;20024;-43
2022/12/18 08:00:31;;;;;;;8.77;5.18;;;;;;;;;;5091787;28;20028;-47
2022/12/18 08:02:57;;;;;;;7.25;4.47;;;;;;;;;;5098432;28;20488;-43
2022/12/18 08:05:23;;;;;;;5.85;4.18;;;;;;;;;;5091547;28;20090;-43
2022/12/18 08:07:49;;;;;;;7.80;4.72;;;;;;;;;;5092882;28;20028;-44
2022/12/18 08:10:15;;;;;;;5.93;4.35;;;;;;;;;;5093754;28;20073;-43
2022/12/18 08:12:41;;;;;;;6.20;4.47;;;;;;;;;;5088450;28;20119;-44
2022/12/18 08:15:08;;;;;;;6.13;4.20;;;;;;;;;;5090710;28;20016;-43
2022/12/18 08:17:34;;;;;;;6.68;4.57;;;;;;;;;;5095526;28;20031;-43
2022/12/18 08:20:00;;;;;;;6.82;5.10;;;;;;;;;;5088480;28;20466;-43
2022/12/18 08:22:26;;;;;;;5.70;4.18;;;;;;;;;;5093738;28;20044;-43
2022/12/18 08:24:52;;;;;;;5.93;4.47;;;;;;;;;;5091054;28;20474;-42
2022/12/18 08:27:18;;;;;;;7.70;5.65;;;;;;;;;;5090324;28;20122;-42
2022/12/18 08:29:44;;;;;;;5.32;3.90;;;;;;;;;;5088334;28;20204;-43
2022/12/18 08:32:10;;;;;;;7.15;4.50;;;;;;;;;;5090791;28;20085;-43
2022/12/18 08:34:36;;;;;;;6.50;4.70;;;;;;;;;;5093490;28;20027;-45
2022/12/18 08:37:02;;;;;;;5.03;4.30;;;;;;;;;;5090307;28;20477;-43
2022/12/18 08:39:28;;;;;;;4.95;4.00;;;;;;;;;;5091584;28;20035;-45
2022/12/18 08:44:39;;;;;;;6.40;4.60;;;;;;;;;;5102836;28;20120;-45
2022/12/18 08:47:06;;;;;;;7.18;4.47;;;;;;;;;;5087145;28;20047;-43
2022/12/18 08:49:32;;;;;;;6.03;3.97;;;;;;;;;;5087140;28;20095;-43
2022/12/18 08:51:58;;;;;;;5.90;4.35;;;;;;;;;;5089617;28;20115;-43
2022/12/18 08:54:24;;;;;;;5.45;3.97;;;;;;;;;;5088871;28;20417;-44
2022/12/18 08:56:50;;;;;;;8.23;4.10;;;;;;;;;;5089748;28;20650;-43
2022/12/18 08:59:17;;;;;;;6.38;4.43;;;;;;;;;;5090544;28;20027;-43
2022/12/18 09:01:43;;;;;;;6.60;4.68;;;;;;;;;;5089149;28;20446;-43
2022/12/18 09:04:09;;;;;;;6.07;4.30;;;;;;;;;;5089740;28;20024;-43
2022/12/18 09:06:35;;;;;;;7.78;5.85;;;;;;;;;;5080331;28;20388;-44
2022/12/18 09:09:01;;;;;;;18.77;13.93;;;;;;;;;;5094642;28;20028;-43
2022/12/18 09:11:28;;;;;;;23.92;15.20;;;;;;;;;;5090859;28;20077;-45
2022/12/18 09:13:54;;;;;;;20.85;12.43;;;;;;;;;;5090993;28;20058;-43
2022/12/18 09:16:21;;;;;;;16.73;12.25;;;;;;;;;;5087955;28;20029;-43
2022/12/18 09:18:47;;;;;;;15.43;10.82;;;;;;;;;;5087394;28;20027;-43
2022/12/18 09:21:18;;;;;;;16.55;10.38;;;;;;;;;;5088348;28;20024;-43
2022/12/18 09:23:44;;;;;;;16.15;10.45;;;;;;;;;;5096021;28;20107;-43
2022/12/18 09:26:10;;;;;;;12.10;9.02;;;;;;;;;;5091431;28;20063;-43
2022/12/18 09:28:36;;;;;;;12.65;9.15;;;;;;;;;;5090472;28;20040;-43
2022/12/18 09:31:09;;;;;;;13.55;8.82;;;;;;;;;;5090814;28;20032;-42
2022/12/18 09:33:36;;;;;;;10.75;8.32;;;;;;;;;;5090246;28;20027;-43
2022/12/18 09:36:06;;;;;;;11.15;7.90;;;;;;;;;;5091645;28;20035;-43
2022/12/18 09:38:32;;;;;;;11.27;7.53;;;;;;;;;;5094825;28;20024;-43
2022/12/18 09:41:01;;;;;;;12.05;7.85;;;;;;;;;;5090359;28;20032;-43
2022/12/18 09:43:38;;;;;;;10.73;6.95;;;;;;;;;;5090443;28;20020;-46
2022/12/18 09:46:06;;;;;;;9.88;6.85;;;;;;;;;;5085134;28;20043;-43
2022/12/18 09:48:35;;;;;;;11.57;7.30;;;;;;;;;;5076951;28;20032;-43
2022/12/18 09:51:04;;;;;;;10.07;7.43;;;;;;;;;;5087528;28;20032;-43
2022/12/18 09:53:32;;;;;;;9.20;6.50;;;;;;;;;;5091572;28;20020;-46
2022/12/18 09:55:58;;;;;;;9.13;6.30;;;;;;;;;;5075497;28;20064;-43
2022/12/18 09:58:33;;;;;;;8.15;5.82;;;;;;;;;;5070796;28;20461;-43
2022/12/18 10:00:59;;;;;;;9.48;6.35;;;;;;;;;;5070403;28;20104;-43
2022/12/18 10:03:25;;;;;;;9.57;6.75;;;;;;;;;;5070258;28;20032;-43
2022/12/18 10:06:03;;;;;;;10.55;6.65;;;;;;;;;;5069991;28;20032;-43
2022/12/18 10:08:36;;;;;;;7.95;5.78;;;;;;;;;;5073093;28;20028;-47
2022/12/18 10:11:12;;;;;;;8.07;5.75;;;;;;;;;;5073140;28;20036;-43
2022/12/18 10:13:42;;;;;;;8.38;6.22;;;;;;;;;;5066992;28;20033;-44
2022/12/18 10:16:11;;;;;;;8.88;5.80;;;;;;;;;;5077437;28;20378;-43
2022/12/18 10:18:52;;;;;;;8.38;6.45;;;;;;;;;;5067606;28;20104;-43
2022/12/18 10:21:20;;;;;;;8.20;6.13;;;;;;;;;;5073850;28;20029;-43
2022/12/18 10:23:58;;;;;;;7.05;5.18;;;;;;;;;;5073010;28;20047;-43
2022/12/18 10:26:24;;;;;;;8.15;5.53;;;;;;;;;;5074436;28;20055;-43
2022/12/18 10:28:51;;;;;;;8.52;5.55;;;;;;;;;;5072399;28;20381;-43
2022/12/18 10:31:20;;;;;;;8.10;5.80;;;;;;;;;;5073599;28;20062;-43
2022/12/18 10:33:46;;;;;;;7.78;5.45;;;;;;;;;;5067141;28;20441;-43
2022/12/18 10:36:12;;;;;;;7.75;5.50;;;;;;;;;;5076371;28;20033;-44
2022/12/18 10:38:38;;;;;;;8.02;5.70;;;;;;;;;;5072807;28;20021;-43
2022/12/18 10:41:09;;;;;;;7.95;5.57;;;;;;;;;;5074108;28;20021;-43
2022/12/18 10:43:36;;;;;;;6.88;5.65;;;;;;;;;;5072716;28;20056;-43
2022/12/18 10:46:02;;;;;;;9.82;6.07;;;;;;;;;;5064936;28;20044;-42
2022/12/18 10:48:29;;;;;;;7.30;5.53;;;;;;;;;;5071108;28;20020;-47
2022/12/18 10:50:55;;;;;;;11.82;5.82;;;;;;;;;;5080746;28;20017;-43
2022/12/18 10:53:23;;;;;;;7.95;5.53;;;;;;;;;;5073422;28;20465;-43
2022/12/18 10:55:49;;;;;;;9.07;6.45;;;;;;;;;;5072715;28;20041;-43
2022/12/18 10:58:35;;;;;;;7.88;5.53;;;;;;;;;;5071689;28;20033;-43
2022/12/18 11:01:06;;;;;;;8.15;6.10;;;;;;;;;;5069627;28;20028;-43
2022/12/18 11:03:32;;;;;;;7.20;5.60;;;;;;;;;;5072345;28;20021;-43
2022/12/18 11:06:08;;;;;;;7.53;5.78;;;;;;;;;;5061385;28;20036;-43
2022/12/18 11:08:35;;;;;;;11.25;5.65;;;;;;;;;;5071502;28;20033;-45
2022/12/18 11:11:01;;;;;;;7.95;5.43;;;;;;;;;;5073080;28;20029;-43
2022/12/18 11:13:28;;;;;;;7.00;5.10;;;;;;;;;;5072721;28;20351;-47
2022/12/18 11:15:54;;;;;;;11.30;7.55;;;;;;;;;;5073189;28;20028;-42
2022/12/18 11:18:20;;;;;;;17.60;7.63;;;;;;;;;;5066429;28;20104;-42
2022/12/18 11:20:51;;;;;;;25.80;9.40;;;;;;;;;;5072403;28;20111;-43
2022/12/18 11:23:19;;;;;;;25.38;9.38;;;;;;;;;;5072519;28;20048;-43
2022/12/18 11:25:57;;;;;;;68.38;16.48;;;;;;;;;;5071313;28;20029;-44
2022/12/18 11:28:39;;;;;;;130.23;27.40;;;;;;;;;;5072487;28;20020;-44
2022/12/18 11:31:12;;;;;;;147.23;32.08;;;;;;;;;;5073499;28;20040;-43
2022/12/18 11:33:40;;;;;;;131.90;34.90;;;;;;;;;;5071118;28;20090;-42
2022/12/18 11:36:08;;;;;;;114.03;27.73;;;;;;;;;;5073096;28;20055;-41
2022/12/18 11:38:35;;;;;;;102.53;25.25;;;;;;;;;;5080221;28;20028;-41
2022/12/18 11:41:09;;;;;;;89.55;24.98;;;;;;;;;;5062568;28;20039;-43
2022/12/18 11:43:46;;;;;;;90.95;25.55;;;;;;;;;;5071396;28;20029;-43
2022/12/18 11:46:17;;;;;;;85.97;21.77;;;;;;;;;;5070232;28;20078;-44
2022/12/18 11:48:50;;;;;;;72.85;19.83;;;;;;;;;;5071525;28;20032;-43
2022/12/18 11:51:21;;;;;;;75.45;18.95;;;;;;;;;;5065355;28;20032;-43
2022/12/18 11:53:47;;;;;;;62.85;19.35;;;;;;;;;;5074428;28;20111;-43
2022/12/18 11:56:25;;;;;;;31.27;15.50;;;;;;;;;;5072240;28;20127;-44
2022/12/18 11:58:57;;;;;;;33.92;14.32;;;;;;;;;;5071450;28;20029;-42
2022/12/18 12:01:34;;;;;;;40.05;14.27;;;;;;;;;;5072806;28;20020;-42
2022/12/18 12:04:09;;;;;;;40.60;12.80;;;;;;;;;;5071679;28;20484;-42
2022/12/18 12:06:35;;;;;;;40.60;14.35;;;;;;;;;;5071305;28;20111;-43
2022/12/18 12:09:01;;;;;;;36.28;12.23;;;;;;;;;;5074241;28;20103;-42
2022/12/18 12:11:33;;;;;;;34.75;12.50;;;;;;;;;;5072030;28;20025;-46
2022/12/18 12:13:59;;;;;;;;;;;;;;;;;;5066967;28;20486;-42
2022/12/18 12:16:29;;;;;;;26.33;11.15;;;;;;;;;;5066120;28;19909;-43
2022/12/18 12:19:16;;;;;;;32.97;12.02;;;;;;;;;;5052277;28;20063;-42
2022/12/18 12:21:43;;;;;;;30.15;11.07;;;;;;;;;;5068427;28;20498;-42
2022/12/18 12:24:31;;;;;;;27.05;11.95;;;;;;;;;;5067093;28;20094;-42
2022/12/18 12:27:06;;;;;;;30.90;10.40;;;;;;;;;;5060615;28;20039;-42
2022/12/18 12:29:51;;;;;;;23.95;8.98;;;;;;;;;;5065391;28;20525;-42
2022/12/18 12:32:32;;;;;;;29.00;10.70;;;;;;;;;;5065977;28;20027;-41
2022/12/18 12:35:10;;;;;;;26.43;9.70;;;;;;;;;;5053221;28;20024;-43
2022/12/18 12:37:48;;;;;;;28.23;10.32;;;;;;;;;;5053047;28;20298;-42
2022/12/18 12:40:19;;;;;;;27.13;9.80;;;;;;;;;;5070478;28;20103;-42
2022/12/18 12:45:48;;;;;;;21.05;8.48;;;;;;;;;;5066631;28;20397;-42
2022/12/18 12:48:18;;;;;;;21.75;8.45;;;;;;;;;;5056765;28;20186;-43
2022/12/18 12:50:44;;;;;;;23.80;9.02;;;;;;;;;;5067830;28;20496;-42
2022/12/18 12:53:22;;;;;;;19.17;8.95;;;;;;;;;;5059714;28;20160;-44
2022/12/18 12:55:48;;;;;;;18.48;7.95;;;;;;;;;;5069613;28;20111;-42
2022/12/18 12:58:14;;;;;;;18.25;7.82;;;;;;;;;;5071263;28;20041;-42
2022/12/18 13:00:46;;;;;;;19.10;7.63;;;;;;;;;;5070406;28;20020;-42
2022/12/18 13:03:12;;;;;;;20.05;8.25;;;;;;;;;;5062960;28;20095;-44
2022/12/18 13:05:54;;;;;;;22.52;7.80;;;;;;;;;;5075754;28;20555;-42
2022/12/18 13:08:30;;;;;;;19.83;7.40;;;;;;;;;;5065879;28;20529;-42
2022/12/18 13:13:53;;;;;;;17.42;8.38;;;;;;;;;;5065900;28;20112;-41
2022/12/18 13:16:20;;;;;;;20.02;7.55;;;;;;;;;;5069330;28;20512;-42
2022/12/18 13:18:50;;;;;;;15.48;6.90;;;;;;;;;;5067335;28;20040;-42
2022/12/18 13:21:28;;;;;;;18.25;8.30;;;;;;;;;;5070795;28;20028;-44
2022/12/18 13:23:55;;;;;;;17.23;7.18;;;;;;;;;;5074196;28;20048;-42
2022/12/18 13:26:24;;;;;;;16.65;7.15;;;;;;;;;;5069711;28;20612;-41
2022/12/18 13:28:53;;;;;;;17.83;8.57;;;;;;;;;;5061908;28;20037;-42
2022/12/18 13:31:28;;;;;;;12.73;6.57;;;;;;;;;;5070581;28;20021;-42
2022/12/18 13:34:10;;;;;;;17.35;7.30;;;;;;;;;;5059781;28;20067;-42
2022/12/18 13:36:36;;;;;;;18.70;7.30;;;;;;;;;;5069377;28;20385;-43
2022/12/18 13:39:14;;;;;;;14.98;7.00;;;;;;;;;;5060344;28;20279;-42
2022/12/18 13:41:40;;;;;;;15.18;6.93;;;;;;;;;;5069589;28;20032;-42
2022/12/18 13:44:25;;;;;;;14.05;6.03;;;;;;;;;;5072384;28;20447;-41
2022/12/18 13:46:51;;;;;;;15.70;7.03;;;;;;;;;;5066519;28;20823;-44
2022/12/18 13:49:36;;;;;;;14.05;7.28;;;;;;;;;;5074014;28;20072;-42
2022/12/18 13:52:02;;;;;;;12.95;5.90;;;;;;;;;;5066557;28;20031;-42
2022/12/18 13:54:28;;;;;;;11.80;6.07;;;;;;;;;;5070318;28;20087;-45
2022/12/18 13:56:54;;;;;;;15.63;7.88;;;;;;;;;;5073741;28;20068;-42
2022/12/18 13:59:22;;;;;;;14.30;6.90;;;;;;;;;;5074483;28;20783;-42
2022/12/18 14:01:51;;;;;;;14.40;5.88;;;;;;;;;;5075755;28;20785;-42
2022/12/18 14:04:19;;;;;;;12.18;6.18;;;;;;;;;;5073333;28;20040;-42
2022/12/18 14:06:46;;;;;;;13.57;6.28;;;;;;;;;;5073176;28;20036;-45
2022/12/18 14:09:14;;;;;;;12.82;6.03;;;;;;;;;;5071066;28;20044;-43
2022/12/18 14:11:41;;;;;;;14.68;7.15;;;;;;;;;;5077303;28;20020;-42
2022/12/18 14:14:07;;;;;;;13.43;5.90;;;;;;;;;;5073983;28;20048;-42
2022/12/18 14:16:34;;;;;;;15.90;6.55;;;;;;;;;;5066674;28;20343;-42
2022/12/18 14:19:00;;;;;;;15.48;6.38;;;;;;;;;;5067531;28;20069;-42
2022/12/18 14:21:27;;;;;;;9.45;4.82;;;;;;;;;;5053618;28;20041;-45
2022/12/18 14:24:04;;;;;;;11.85;6.50;;;;;;;;;;5067381;28;20131;-42
2022/12/18 14:26:31;;;;;;;10.63;5.88;;;;;;;;;;5065274;28;20044;-45
2022/12/18 14:28:57;;;;;;;11.85;6.15;;;;;;;;;;5071151;28;20045;-42
2022/12/18 14:31:27;;;;;;;10.95;5.93;;;;;;;;;;5068960;28;20067;-42
2022/12/18 14:33:53;;;;;;;12.15;6.22;;;;;;;;;;5065340;28;20040;-42
2022/12/18 14:36:26;;;;;;;11.48;5.90;;;;;;;;;;5092803;28;20174;-42
2022/12/18 14:38:56;;;;;;;12.32;5.80;;;;;;;;;;5075111;28;20033;-42
2022/12/18 14:41:23;;;;;;;7.72;5.07;;;;;;;;;;5087405;28;20016;-42
2022/12/18 14:43:50;;;;;;;9.63;5.70;;;;;;;;;;5062327;28;20588;-42
2022/12/18 14:46:35;;;;;;;14.13;6.43;;;;;;;;;;5078245;28;20534;-44
2022/12/18 14:49:15;;;;;;;14.43;6.93;;;;;;;;;;5075946;28;20107;-42
2022/12/18 14:51:47;;;;;;;11.75;5.70;;;;;;;;;;5079955;28;20039;-42
2022/12/18 14:54:18;;;;;;;11.05;5.70;;;;;;;;;;5068386;28;20028;-42
2022/12/18 14:56:45;;;;;;;13.57;5.88;;;;;;;;;;5071073;28;20497;-43
2022/12/18 14:59:21;;;;;;;11.15;6.00;;;;;;;;;;5071251;28;20020;-42